sensor_id;sensor_type;location;lat;lon;timestamp;P1;durP1;ratioP1;P2;durP2;ratioP2
51764;SDS011;37835;53.256;6.456;2023-12-14T00:01:44;11.23;;;7.20;;
51764;SDS011;37835;53.256;6.456;2023-12-14T00:04:11;9.95;;;7.65;;
51764;SDS011;37835;53.256;6.456;2023-12-14T00:06:37;13.60;;;8.25;;
51764;SDS011;37835;53.256;6.456;2023-12-14T00:09:03;15.93;;;8.55;;
51764;SDS011;37835;53.256;6.456;2023-12-14T00:11:28;12.80;;;7.60;;
51764;SDS011;37835;53.256;6.456;2023-12-14T00:13:54;13.43;;;8.07;;
51764;SDS011;37835;53.256;6.456;2023-12-14T00:16:20;10.57;;;7.68;;
51764;SDS011;37835;53.256;6.456;2023-12-14T00:18:46;12.48;;;7.35;;
51764;SDS011;37835;53.256;6.456;2023-12-14T00:21:11;11.35;;;7.85;;
51764;SDS011;37835;53.256;6.456;2023-12-14T00:23:37;12.48;;;7.97;;
51764;SDS011;37835;53.256;6.456;2023-12-14T00:26:03;15.88;;;8.75;;
51764;SDS011;37835;53.256;6.456;2023-12-14T00:28:28;13.65;;;8.82;;
51764;SDS011;37835;53.256;6.456;2023-12-14T00:30:54;14.13;;;8.68;;
51764;SDS011;37835;53.256;6.456;2023-12-14T00:33:20;14.18;;;7.93;;
51764;SDS011;37835;53.256;6.456;2023-12-14T00:35:45;13.18;;;8.27;;
51764;SDS011;37835;53.256;6.456;2023-12-14T00:38:11;16.23;;;8.20;;
51764;SDS011;37835;53.256;6.456;2023-12-14T00:40:36;12.65;;;8.40;;
51764;SDS011;37835;53.256;6.456;2023-12-14T00:43:02;11.98;;;8.00;;
51764;SDS011;37835;53.256;6.456;2023-12-14T00:45:28;12.30;;;7.65;;
51764;SDS011;37835;53.256;6.456;2023-12-14T00:47:53;13.75;;;7.50;;
51764;SDS011;37835;53.256;6.456;2023-12-14T00:50:19;13.75;;;7.70;;
51764;SDS011;37835;53.256;6.456;2023-12-14T00:52:45;11.38;;;7.80;;
51764;SDS011;37835;53.256;6.456;2023-12-14T00:55:10;10.70;;;6.53;;
51764;SDS011;37835;53.256;6.456;2023-12-14T00:57:36;13.25;;;7.10;;
51764;SDS011;37835;53.256;6.456;2023-12-14T01:00:01;9.65;;;6.60;;
51764;SDS011;37835;53.256;6.456;2023-12-14T01:02:28;10.57;;;6.82;;
51764;SDS011;37835;53.256;6.456;2023-12-14T01:04:54;12.07;;;7.00;;
51764;SDS011;37835;53.256;6.456;2023-12-14T01:07:20;13.23;;;7.47;;
51764;SDS011;37835;53.256;6.456;2023-12-14T01:09:45;11.50;;;7.25;;
51764;SDS011;37835;53.256;6.456;2023-12-14T01:12:11;11.45;;;7.55;;
51764;SDS011;37835;53.256;6.456;2023-12-14T01:14:36;13.63;;;7.57;;
51764;SDS011;37835;53.256;6.456;2023-12-14T01:17:02;15.77;;;8.35;;
51764;SDS011;37835;53.256;6.456;2023-12-14T01:19:28;12.80;;;8.20;;
51764;SDS011;37835;53.256;6.456;2023-12-14T01:21:53;12.77;;;8.02;;
51764;SDS011;37835;53.256;6.456;2023-12-14T01:24:20;16.13;;;8.85;;
51764;SDS011;37835;53.256;6.456;2023-12-14T01:26:46;17.77;;;8.95;;
51764;SDS011;37835;53.256;6.456;2023-12-14T01:29:11;16.48;;;9.50;;
51764;SDS011;37835;53.256;6.456;2023-12-14T01:31:37;19.48;;;10.43;;
51764;SDS011;37835;53.256;6.456;2023-12-14T01:34:02;17.33;;;10.20;;
51764;SDS011;37835;53.256;6.456;2023-12-14T01:36:28;16.75;;;10.13;;
51764;SDS011;37835;53.256;6.456;2023-12-14T01:38:54;19.08;;;9.48;;
51764;SDS011;37835;53.256;6.456;2023-12-14T01:41:19;15.05;;;9.18;;
51764;SDS011;37835;53.256;6.456;2023-12-14T01:43:45;19.20;;;10.05;;
51764;SDS011;37835;53.256;6.456;2023-12-14T01:46:11;19.08;;;10.63;;
51764;SDS011;37835;53.256;6.456;2023-12-14T01:48:37;18.30;;;9.73;;
51764;SDS011;37835;53.256;6.456;2023-12-14T01:51:03;21.42;;;9.10;;
51764;SDS011;37835;53.256;6.456;2023-12-14T01:53:29;16.80;;;9.88;;
51764;SDS011;37835;53.256;6.456;2023-12-14T01:55:55;16.38;;;9.95;;
51764;SDS011;37835;53.256;6.456;2023-12-14T01:58:21;19.65;;;8.57;;
51764;SDS011;37835;53.256;6.456;2023-12-14T02:00:56;15.88;;;8.85;;
51764;SDS011;37835;53.256;6.456;2023-12-14T02:03:46;17.52;;;8.98;;
51764;SDS011;37835;53.256;6.456;2023-12-14T02:06:17;15.18;;;8.52;;
51764;SDS011;37835;53.256;6.456;2023-12-14T02:08:43;13.23;;;8.73;;
51764;SDS011;37835;53.256;6.456;2023-12-14T02:11:08;16.00;;;9.07;;
51764;SDS011;37835;53.256;6.456;2023-12-14T02:13:34;14.00;;;8.23;;
51764;SDS011;37835;53.256;6.456;2023-12-14T02:16:00;14.75;;;9.05;;
51764;SDS011;37835;53.256;6.456;2023-12-14T02:18:25;16.15;;;8.85;;
51764;SDS011;37835;53.256;6.456;2023-12-14T02:20:51;17.40;;;8.55;;
51764;SDS011;37835;53.256;6.456;2023-12-14T02:23:17;19.52;;;8.48;;
51764;SDS011;37835;53.256;6.456;2023-12-14T02:25:43;19.35;;;8.77;;
51764;SDS011;37835;53.256;6.456;2023-12-14T02:28:08;12.95;;;8.23;;
51764;SDS011;37835;53.256;6.456;2023-12-14T02:30:34;14.30;;;8.38;;
51764;SDS011;37835;53.256;6.456;2023-12-14T02:33:00;17.30;;;9.10;;
51764;SDS011;37835;53.256;6.456;2023-12-14T02:35:25;16.48;;;8.52;;
51764;SDS011;37835;53.256;6.456;2023-12-14T02:37:51;13.45;;;8.93;;
51764;SDS011;37835;53.256;6.456;2023-12-14T02:40:17;13.77;;;7.82;;
51764;SDS011;37835;53.256;6.456;2023-12-14T02:42:43;21.27;;;8.00;;
51764;SDS011;37835;53.256;6.456;2023-12-14T02:45:08;13.82;;;8.95;;
51764;SDS011;37835;53.256;6.456;2023-12-14T02:47:35;16.77;;;8.65;;
51764;SDS011;37835;53.256;6.456;2023-12-14T02:50:00;16.70;;;9.07;;
51764;SDS011;37835;53.256;6.456;2023-12-14T02:52:26;21.83;;;9.65;;
51764;SDS011;37835;53.256;6.456;2023-12-14T02:54:52;20.83;;;9.60;;
51764;SDS011;37835;53.256;6.456;2023-12-14T02:57:17;17.92;;;9.45;;
51764;SDS011;37835;53.256;6.456;2023-12-14T02:59:43;15.60;;;9.48;;
51764;SDS011;37835;53.256;6.456;2023-12-14T03:02:09;19.15;;;10.85;;
51764;SDS011;37835;53.256;6.456;2023-12-14T03:04:37;22.38;;;10.25;;
51764;SDS011;37835;53.256;6.456;2023-12-14T03:07:04;22.02;;;11.00;;
51764;SDS011;37835;53.256;6.456;2023-12-14T03:09:30;19.27;;;10.45;;
51764;SDS011;37835;53.256;6.456;2023-12-14T03:11:55;21.40;;;10.88;;
51764;SDS011;37835;53.256;6.456;2023-12-14T03:14:21;19.95;;;10.15;;
51764;SDS011;37835;53.256;6.456;2023-12-14T03:16:47;22.75;;;10.90;;
51764;SDS011;37835;53.256;6.456;2023-12-14T03:19:14;18.33;;;9.93;;
51764;SDS011;37835;53.256;6.456;2023-12-14T03:21:41;23.67;;;11.15;;
51764;SDS011;37835;53.256;6.456;2023-12-14T03:24:07;18.88;;;10.85;;
51764;SDS011;37835;53.256;6.456;2023-12-14T03:26:32;22.35;;;11.10;;
51764;SDS011;37835;53.256;6.456;2023-12-14T03:28:58;22.90;;;11.35;;
51764;SDS011;37835;53.256;6.456;2023-12-14T03:31:24;22.42;;;11.52;;
51764;SDS011;37835;53.256;6.456;2023-12-14T03:33:50;23.90;;;10.93;;
51764;SDS011;37835;53.256;6.456;2023-12-14T03:36:15;23.17;;;11.57;;
51764;SDS011;37835;53.256;6.456;2023-12-14T03:38:41;22.20;;;12.10;;
51764;SDS011;37835;53.256;6.456;2023-12-14T03:41:07;23.25;;;11.88;;
51764;SDS011;37835;53.256;6.456;2023-12-14T03:43:32;24.58;;;12.25;;
51764;SDS011;37835;53.256;6.456;2023-12-14T03:45:58;18.38;;;12.15;;
51764;SDS011;37835;53.256;6.456;2023-12-14T03:48:24;21.05;;;12.00;;
51764;SDS011;37835;53.256;6.456;2023-12-14T03:50:49;23.15;;;11.63;;
51764;SDS011;37835;53.256;6.456;2023-12-14T03:53:15;24.13;;;12.55;;
51764;SDS011;37835;53.256;6.456;2023-12-14T03:55:40;23.65;;;12.13;;
51764;SDS011;37835;53.256;6.456;2023-12-14T03:58:06;22.60;;;12.20;;
51764;SDS011;37835;53.256;6.456;2023-12-14T04:00:32;23.65;;;12.25;;
51764;SDS011;37835;53.256;6.456;2023-12-14T04:02:57;22.48;;;12.77;;
51764;SDS011;37835;53.256;6.456;2023-12-14T04:05:23;22.48;;;11.75;;
51764;SDS011;37835;53.256;6.456;2023-12-14T04:07:49;22.15;;;11.65;;
51764;SDS011;37835;53.256;6.456;2023-12-14T04:10:14;20.75;;;11.48;;
51764;SDS011;37835;53.256;6.456;2023-12-14T04:12:40;25.50;;;12.52;;
51764;SDS011;37835;53.256;6.456;2023-12-14T04:15:07;21.27;;;12.60;;
51764;SDS011;37835;53.256;6.456;2023-12-14T04:17:34;24.85;;;13.05;;
51764;SDS011;37835;53.256;6.456;2023-12-14T04:20:00;22.33;;;12.13;;
51764;SDS011;37835;53.256;6.456;2023-12-14T04:22:29;27.20;;;13.07;;
51764;SDS011;37835;53.256;6.456;2023-12-14T04:24:54;26.98;;;12.32;;
51764;SDS011;37835;53.256;6.456;2023-12-14T04:27:20;22.23;;;12.70;;
51764;SDS011;37835;53.256;6.456;2023-12-14T04:29:46;22.77;;;12.10;;
51764;SDS011;37835;53.256;6.456;2023-12-14T04:32:11;25.38;;;12.02;;
51764;SDS011;37835;53.256;6.456;2023-12-14T04:34:37;22.05;;;12.50;;
51764;SDS011;37835;53.256;6.456;2023-12-14T04:37:03;24.00;;;11.55;;
51764;SDS011;37835;53.256;6.456;2023-12-14T04:39:29;23.48;;;11.43;;
51764;SDS011;37835;53.256;6.456;2023-12-14T04:41:55;25.65;;;11.73;;
51764;SDS011;37835;53.256;6.456;2023-12-14T04:44:21;25.63;;;13.05;;
51764;SDS011;37835;53.256;6.456;2023-12-14T04:46:47;22.35;;;11.60;;
51764;SDS011;37835;53.256;6.456;2023-12-14T04:49:13;20.73;;;11.70;;
51764;SDS011;37835;53.256;6.456;2023-12-14T04:51:41;21.88;;;11.60;;
51764;SDS011;37835;53.256;6.456;2023-12-14T04:54:07;24.23;;;12.32;;
51764;SDS011;37835;53.256;6.456;2023-12-14T04:56:33;20.48;;;11.85;;
51764;SDS011;37835;53.256;6.456;2023-12-14T04:58:59;23.73;;;12.32;;
51764;SDS011;37835;53.256;6.456;2023-12-14T05:01:24;21.63;;;11.50;;
51764;SDS011;37835;53.256;6.456;2023-12-14T05:03:51;26.15;;;12.75;;
51764;SDS011;37835;53.256;6.456;2023-12-14T05:06:20;25.38;;;11.57;;
51764;SDS011;37835;53.256;6.456;2023-12-14T05:08:47;27.55;;;12.23;;
51764;SDS011;37835;53.256;6.456;2023-12-14T05:11:12;23.80;;;12.60;;
51764;SDS011;37835;53.256;6.456;2023-12-14T05:13:38;22.92;;;11.88;;
51764;SDS011;37835;53.256;6.456;2023-12-14T05:16:05;23.40;;;12.75;;
51764;SDS011;37835;53.256;6.456;2023-12-14T05:18:31;22.85;;;11.95;;
51764;SDS011;37835;53.256;6.456;2023-12-14T05:20:56;21.98;;;11.98;;
51764;SDS011;37835;53.256;6.456;2023-12-14T05:23:22;22.23;;;12.07;;
51764;SDS011;37835;53.256;6.456;2023-12-14T05:25:49;23.95;;;11.65;;
51764;SDS011;37835;53.256;6.456;2023-12-14T05:28:15;25.33;;;12.52;;
51764;SDS011;37835;53.256;6.456;2023-12-14T05:30:40;27.25;;;12.77;;
51764;SDS011;37835;53.256;6.456;2023-12-14T05:33:06;24.80;;;12.65;;
51764;SDS011;37835;53.256;6.456;2023-12-14T05:35:32;26.08;;;12.13;;
51764;SDS011;37835;53.256;6.456;2023-12-14T05:37:58;22.65;;;12.10;;
51764;SDS011;37835;53.256;6.456;2023-12-14T05:40:24;25.95;;;13.02;;
51764;SDS011;37835;53.256;6.456;2023-12-14T05:42:49;23.50;;;11.70;;
51764;SDS011;37835;53.256;6.456;2023-12-14T05:45:15;24.63;;;12.02;;
51764;SDS011;37835;53.256;6.456;2023-12-14T05:47:43;22.80;;;11.77;;
51764;SDS011;37835;53.256;6.456;2023-12-14T05:50:09;20.10;;;12.00;;
51764;SDS011;37835;53.256;6.456;2023-12-14T05:52:35;24.20;;;12.60;;
51764;SDS011;37835;53.256;6.456;2023-12-14T05:55:01;23.48;;;12.20;;
51764;SDS011;37835;53.256;6.456;2023-12-14T05:57:27;21.77;;;13.05;;
51764;SDS011;37835;53.256;6.456;2023-12-14T05:59:53;24.70;;;12.60;;
51764;SDS011;37835;53.256;6.456;2023-12-14T06:02:18;25.65;;;12.27;;
51764;SDS011;37835;53.256;6.456;2023-12-14T06:04:44;22.27;;;12.15;;
51764;SDS011;37835;53.256;6.456;2023-12-14T06:07:10;20.20;;;12.40;;
51764;SDS011;37835;53.256;6.456;2023-12-14T06:09:36;27.13;;;13.10;;
51764;SDS011;37835;53.256;6.456;2023-12-14T06:12:02;25.35;;;11.93;;
51764;SDS011;37835;53.256;6.456;2023-12-14T06:14:29;27.92;;;12.50;;
51764;SDS011;37835;53.256;6.456;2023-12-14T06:16:55;23.85;;;13.07;;
51764;SDS011;37835;53.256;6.456;2023-12-14T06:19:21;25.95;;;12.50;;
51764;SDS011;37835;53.256;6.456;2023-12-14T06:21:47;23.38;;;12.20;;
51764;SDS011;37835;53.256;6.456;2023-12-14T06:24:13;23.13;;;12.52;;
51764;SDS011;37835;53.256;6.456;2023-12-14T06:26:45;29.35;;;13.50;;
51764;SDS011;37835;53.256;6.456;2023-12-14T06:29:11;27.55;;;13.23;;
51764;SDS011;37835;53.256;6.456;2023-12-14T06:31:37;34.35;;;12.98;;
51764;SDS011;37835;53.256;6.456;2023-12-14T06:34:03;26.55;;;12.73;;
51764;SDS011;37835;53.256;6.456;2023-12-14T06:36:29;30.75;;;13.32;;
51764;SDS011;37835;53.256;6.456;2023-12-14T06:38:56;27.02;;;13.35;;
51764;SDS011;37835;53.256;6.456;2023-12-14T06:41:22;27.75;;;12.45;;
51764;SDS011;37835;53.256;6.456;2023-12-14T06:43:49;28.17;;;13.20;;
51764;SDS011;37835;53.256;6.456;2023-12-14T06:46:15;24.63;;;13.13;;
51764;SDS011;37835;53.256;6.456;2023-12-14T06:48:41;26.17;;;13.25;;
51764;SDS011;37835;53.256;6.456;2023-12-14T06:51:06;28.00;;;13.93;;
51764;SDS011;37835;53.256;6.456;2023-12-14T06:53:33;28.73;;;13.10;;
51764;SDS011;37835;53.256;6.456;2023-12-14T06:56:00;24.90;;;13.65;;
51764;SDS011;37835;53.256;6.456;2023-12-14T06:58:26;26.50;;;13.48;;
51764;SDS011;37835;53.256;6.456;2023-12-14T07:00:52;29.20;;;13.25;;
51764;SDS011;37835;53.256;6.456;2023-12-14T07:03:18;26.05;;;14.05;;
51764;SDS011;37835;53.256;6.456;2023-12-14T07:05:43;26.05;;;13.65;;
51764;SDS011;37835;53.256;6.456;2023-12-14T07:08:09;25.13;;;12.80;;
51764;SDS011;37835;53.256;6.456;2023-12-14T07:10:34;27.48;;;12.95;;
51764;SDS011;37835;53.256;6.456;2023-12-14T07:13:00;26.58;;;13.02;;
51764;SDS011;37835;53.256;6.456;2023-12-14T07:15:26;22.55;;;12.82;;
51764;SDS011;37835;53.256;6.456;2023-12-14T07:17:51;28.33;;;13.88;;
51764;SDS011;37835;53.256;6.456;2023-12-14T07:20:17;23.63;;;13.13;;
51764;SDS011;37835;53.256;6.456;2023-12-14T07:22:43;24.58;;;12.32;;
51764;SDS011;37835;53.256;6.456;2023-12-14T07:25:08;25.02;;;13.15;;
51764;SDS011;37835;53.256;6.456;2023-12-14T07:27:34;25.65;;;13.02;;
51764;SDS011;37835;53.256;6.456;2023-12-14T07:30:00;21.33;;;12.40;;
51764;SDS011;37835;53.256;6.456;2023-12-14T07:32:25;29.02;;;13.35;;
51764;SDS011;37835;53.256;6.456;2023-12-14T07:34:52;33.05;;;15.13;;
51764;SDS011;37835;53.256;6.456;2023-12-14T07:37:18;31.48;;;14.43;;
51764;SDS011;37835;53.256;6.456;2023-12-14T07:39:43;26.40;;;14.13;;
51764;SDS011;37835;53.256;6.456;2023-12-14T07:42:09;25.10;;;13.57;;
51764;SDS011;37835;53.256;6.456;2023-12-14T07:44:35;27.45;;;13.82;;
51764;SDS011;37835;53.256;6.456;2023-12-14T07:47:02;25.95;;;13.55;;
51764;SDS011;37835;53.256;6.456;2023-12-14T07:49:28;24.55;;;13.75;;
51764;SDS011;37835;53.256;6.456;2023-12-14T07:51:54;30.35;;;14.07;;
51764;SDS011;37835;53.256;6.456;2023-12-14T07:54:19;29.85;;;14.60;;
51764;SDS011;37835;53.256;6.456;2023-12-14T07:56:45;24.27;;;13.93;;
51764;SDS011;37835;53.256;6.456;2023-12-14T07:59:11;30.08;;;14.88;;
51764;SDS011;37835;53.256;6.456;2023-12-14T08:01:37;27.85;;;14.30;;
51764;SDS011;37835;53.256;6.456;2023-12-14T08:04:02;33.13;;;14.85;;
51764;SDS011;37835;53.256;6.456;2023-12-14T08:06:29;37.05;;;18.52;;
51764;SDS011;37835;53.256;6.456;2023-12-14T08:08:55;33.03;;;18.85;;
51764;SDS011;37835;53.256;6.456;2023-12-14T08:11:24;28.52;;;15.48;;
51764;SDS011;37835;53.256;6.456;2023-12-14T08:13:50;29.33;;;15.63;;
51764;SDS011;37835;53.256;6.456;2023-12-14T08:16:16;32.45;;;14.70;;
51764;SDS011;37835;53.256;6.456;2023-12-14T08:18:42;28.67;;;14.27;;
51764;SDS011;37835;53.256;6.456;2023-12-14T08:21:18;28.83;;;14.10;;
51764;SDS011;37835;53.256;6.456;2023-12-14T08:23:46;28.65;;;13.65;;
51764;SDS011;37835;53.256;6.456;2023-12-14T08:26:12;25.58;;;13.82;;
51764;SDS011;37835;53.256;6.456;2023-12-14T08:28:41;26.15;;;13.02;;
51764;SDS011;37835;53.256;6.456;2023-12-14T08:31:08;26.38;;;14.18;;
51764;SDS011;37835;53.256;6.456;2023-12-14T08:33:35;35.15;;;14.73;;
51764;SDS011;37835;53.256;6.456;2023-12-14T08:36:02;24.85;;;14.05;;
51764;SDS011;37835;53.256;6.456;2023-12-14T08:38:28;22.25;;;13.93;;
51764;SDS011;37835;53.256;6.456;2023-12-14T08:40:53;28.65;;;13.57;;
51764;SDS011;37835;53.256;6.456;2023-12-14T08:43:19;28.42;;;14.00;;
51764;SDS011;37835;53.256;6.456;2023-12-14T08:45:45;27.85;;;14.30;;
51764;SDS011;37835;53.256;6.456;2023-12-14T08:48:10;28.02;;;13.98;;
51764;SDS011;37835;53.256;6.456;2023-12-14T08:50:37;29.48;;;14.60;;
51764;SDS011;37835;53.256;6.456;2023-12-14T08:53:02;26.65;;;14.50;;
51764;SDS011;37835;53.256;6.456;2023-12-14T08:55:30;28.73;;;14.63;;
51764;SDS011;37835;53.256;6.456;2023-12-14T08:57:56;28.27;;;15.20;;
51764;SDS011;37835;53.256;6.456;2023-12-14T09:00:22;29.98;;;15.13;;
51764;SDS011;37835;53.256;6.456;2023-12-14T09:02:48;38.10;;;15.38;;
51764;SDS011;37835;53.256;6.456;2023-12-14T09:05:14;31.90;;;15.93;;
51764;SDS011;37835;53.256;6.456;2023-12-14T09:07:45;26.10;;;14.55;;
51764;SDS011;37835;53.256;6.456;2023-12-14T09:10:11;31.45;;;14.85;;
51764;SDS011;37835;53.256;6.456;2023-12-14T09:12:37;29.65;;;14.57;;
51764;SDS011;37835;53.256;6.456;2023-12-14T09:15:03;25.15;;;14.68;;
51764;SDS011;37835;53.256;6.456;2023-12-14T09:17:29;28.42;;;15.45;;
51764;SDS011;37835;53.256;6.456;2023-12-14T09:20:01;26.88;;;15.00;;
51764;SDS011;37835;53.256;6.456;2023-12-14T09:22:29;32.58;;;15.32;;
51764;SDS011;37835;53.256;6.456;2023-12-14T09:24:56;30.88;;;15.18;;
51764;SDS011;37835;53.256;6.456;2023-12-14T09:27:21;31.35;;;15.35;;
51764;SDS011;37835;53.256;6.456;2023-12-14T09:29:47;31.08;;;14.90;;
51764;SDS011;37835;53.256;6.456;2023-12-14T09:32:12;32.45;;;15.02;;
51764;SDS011;37835;53.256;6.456;2023-12-14T09:34:38;26.80;;;14.63;;
51764;SDS011;37835;53.256;6.456;2023-12-14T09:37:04;28.70;;;15.00;;
51764;SDS011;37835;53.256;6.456;2023-12-14T09:39:30;25.90;;;15.15;;
51764;SDS011;37835;53.256;6.456;2023-12-14T09:42:06;27.60;;;14.85;;
51764;SDS011;37835;53.256;6.456;2023-12-14T09:44:33;29.60;;;14.60;;
51764;SDS011;37835;53.256;6.456;2023-12-14T09:47:01;26.65;;;14.63;;
51764;SDS011;37835;53.256;6.456;2023-12-14T09:49:30;25.83;;;14.40;;
51764;SDS011;37835;53.256;6.456;2023-12-14T09:51:56;27.60;;;14.15;;
51764;SDS011;37835;53.256;6.456;2023-12-14T09:54:22;27.48;;;14.80;;
51764;SDS011;37835;53.256;6.456;2023-12-14T09:56:48;29.45;;;15.70;;
51764;SDS011;37835;53.256;6.456;2023-12-14T09:59:14;31.17;;;14.98;;
51764;SDS011;37835;53.256;6.456;2023-12-14T10:01:40;31.33;;;15.30;;
51764;SDS011;37835;53.256;6.456;2023-12-14T10:04:10;31.58;;;15.82;;
51764;SDS011;37835;53.256;6.456;2023-12-14T10:06:37;29.35;;;15.32;;
51764;SDS011;37835;53.256;6.456;2023-12-14T10:09:04;29.08;;;16.27;;
51764;SDS011;37835;53.256;6.456;2023-12-14T10:11:34;24.67;;;15.35;;
51764;SDS011;37835;53.256;6.456;2023-12-14T10:14:01;28.30;;;15.00;;
51764;SDS011;37835;53.256;6.456;2023-12-14T10:16:32;29.15;;;16.08;;
51764;SDS011;37835;53.256;6.456;2023-12-14T10:18:59;24.65;;;15.27;;
51764;SDS011;37835;53.256;6.456;2023-12-14T10:21:28;27.98;;;15.38;;
51764;SDS011;37835;53.256;6.456;2023-12-14T10:23:54;26.30;;;15.48;;
51764;SDS011;37835;53.256;6.456;2023-12-14T10:26:22;28.95;;;14.98;;
51764;SDS011;37835;53.256;6.456;2023-12-14T10:28:49;30.20;;;14.40;;
51764;SDS011;37835;53.256;6.456;2023-12-14T10:31:17;34.10;;;15.85;;
51764;SDS011;37835;53.256;6.456;2023-12-14T10:33:44;24.52;;;14.35;;
51764;SDS011;37835;53.256;6.456;2023-12-14T10:36:11;28.25;;;14.95;;
51764;SDS011;37835;53.256;6.456;2023-12-14T10:38:44;27.00;;;15.07;;
51764;SDS011;37835;53.256;6.456;2023-12-14T10:41:12;26.30;;;14.30;;
51764;SDS011;37835;53.256;6.456;2023-12-14T10:43:38;28.00;;;14.98;;
51764;SDS011;37835;53.256;6.456;2023-12-14T10:46:06;28.60;;;15.15;;
51764;SDS011;37835;53.256;6.456;2023-12-14T10:48:35;28.02;;;14.90;;
51764;SDS011;37835;53.256;6.456;2023-12-14T10:51:04;25.88;;;14.73;;
51764;SDS011;37835;53.256;6.456;2023-12-14T10:53:32;27.08;;;14.73;;
51764;SDS011;37835;53.256;6.456;2023-12-14T10:55:59;23.00;;;14.70;;
51764;SDS011;37835;53.256;6.456;2023-12-14T10:58:31;25.05;;;14.20;;
51764;SDS011;37835;53.256;6.456;2023-12-14T11:01:13;23.15;;;14.38;;
51764;SDS011;37835;53.256;6.456;2023-12-14T11:03:40;22.05;;;13.40;;
51764;SDS011;37835;53.256;6.456;2023-12-14T11:08:56;22.08;;;13.93;;
51764;SDS011;37835;53.256;6.456;2023-12-14T11:11:31;24.92;;;13.95;;
51764;SDS011;37835;53.256;6.456;2023-12-14T11:14:22;29.10;;;15.70;;
51764;SDS011;37835;53.256;6.456;2023-12-14T11:16:50;25.77;;;14.07;;
51764;SDS011;37835;53.256;6.456;2023-12-14T11:24:22;25.00;;;15.05;;
51764;SDS011;37835;53.256;6.456;2023-12-14T11:26:49;27.55;;;15.05;;
51764;SDS011;37835;53.256;6.456;2023-12-14T11:29:16;24.58;;;14.80;;
51764;SDS011;37835;53.256;6.456;2023-12-14T11:31:42;23.33;;;14.65;;
51764;SDS011;37835;53.256;6.456;2023-12-14T11:34:08;26.70;;;15.50;;
51764;SDS011;37835;53.256;6.456;2023-12-14T11:36:35;27.88;;;14.18;;
51764;SDS011;37835;53.256;6.456;2023-12-14T11:39:04;27.13;;;15.55;;
51764;SDS011;37835;53.256;6.456;2023-12-14T11:41:30;25.58;;;13.68;;
51764;SDS011;37835;53.256;6.456;2023-12-14T11:43:58;21.30;;;14.10;;
51764;SDS011;37835;53.256;6.456;2023-12-14T11:46:24;26.80;;;14.07;;
51764;SDS011;37835;53.256;6.456;2023-12-14T11:48:50;23.77;;;14.05;;
51764;SDS011;37835;53.256;6.456;2023-12-14T11:51:16;27.00;;;15.05;;
51764;SDS011;37835;53.256;6.456;2023-12-14T11:53:46;22.17;;;13.98;;
51764;SDS011;37835;53.256;6.456;2023-12-14T11:56:13;22.85;;;13.85;;
51764;SDS011;37835;53.256;6.456;2023-12-14T11:58:43;22.90;;;14.18;;
51764;SDS011;37835;53.256;6.456;2023-12-14T12:01:16;24.95;;;13.80;;
51764;SDS011;37835;53.256;6.456;2023-12-14T12:03:44;24.25;;;15.10;;
51764;SDS011;37835;53.256;6.456;2023-12-14T12:06:29;24.30;;;14.90;;
51764;SDS011;37835;53.256;6.456;2023-12-14T12:08:55;20.90;;;13.80;;
51764;SDS011;37835;53.256;6.456;2023-12-14T12:11:22;22.98;;;14.23;;
51764;SDS011;37835;53.256;6.456;2023-12-14T12:13:56;26.30;;;13.67;;
51764;SDS011;37835;53.256;6.456;2023-12-14T12:16:22;22.25;;;13.40;;
51764;SDS011;37835;53.256;6.456;2023-12-14T12:18:48;24.67;;;13.55;;
51764;SDS011;37835;53.256;6.456;2023-12-14T12:21:15;23.50;;;14.02;;
51764;SDS011;37835;53.256;6.456;2023-12-14T12:23:41;22.25;;;13.65;;
51764;SDS011;37835;53.256;6.456;2023-12-14T12:26:07;24.20;;;12.48;;
51764;SDS011;37835;53.256;6.456;2023-12-14T12:28:33;23.33;;;13.18;;
51764;SDS011;37835;53.256;6.456;2023-12-14T12:30:59;21.95;;;13.18;;
51764;SDS011;37835;53.256;6.456;2023-12-14T12:33:25;21.90;;;12.98;;
51764;SDS011;37835;53.256;6.456;2023-12-14T12:35:51;22.80;;;13.13;;
51764;SDS011;37835;53.256;6.456;2023-12-14T12:38:17;26.80;;;13.63;;
51764;SDS011;37835;53.256;6.456;2023-12-14T12:40:44;21.58;;;12.73;;
51764;SDS011;37835;53.256;6.456;2023-12-14T12:43:10;23.73;;;12.85;;
51764;SDS011;37835;53.256;6.456;2023-12-14T12:45:36;21.70;;;13.05;;
51764;SDS011;37835;53.256;6.456;2023-12-14T12:48:02;23.77;;;13.02;;
51764;SDS011;37835;53.256;6.456;2023-12-14T12:50:31;24.52;;;13.20;;
51764;SDS011;37835;53.256;6.456;2023-12-14T12:52:56;22.48;;;13.50;;
51764;SDS011;37835;53.256;6.456;2023-12-14T12:55:22;20.25;;;13.45;;
51764;SDS011;37835;53.256;6.456;2023-12-14T12:57:48;25.70;;;14.13;;
51764;SDS011;37835;53.256;6.456;2023-12-14T13:00:17;24.77;;;14.00;;
51764;SDS011;37835;53.256;6.456;2023-12-14T13:02:44;22.63;;;14.13;;
51764;SDS011;37835;53.256;6.456;2023-12-14T13:05:10;22.42;;;14.00;;
51764;SDS011;37835;53.256;6.456;2023-12-14T13:07:36;24.77;;;14.70;;
51764;SDS011;37835;53.256;6.456;2023-12-14T13:10:06;26.17;;;14.50;;
51764;SDS011;37835;53.256;6.456;2023-12-14T13:12:32;23.65;;;14.10;;
51764;SDS011;37835;53.256;6.456;2023-12-14T13:14:59;23.23;;;13.63;;
51764;SDS011;37835;53.256;6.456;2023-12-14T13:17:25;24.25;;;14.20;;
51764;SDS011;37835;53.256;6.456;2023-12-14T13:19:51;25.45;;;13.65;;
51764;SDS011;37835;53.256;6.456;2023-12-14T13:22:17;22.60;;;13.90;;
51764;SDS011;37835;53.256;6.456;2023-12-14T13:24:43;20.20;;;13.18;;
51764;SDS011;37835;53.256;6.456;2023-12-14T13:27:09;21.95;;;13.55;;
51764;SDS011;37835;53.256;6.456;2023-12-14T13:29:35;26.50;;;14.45;;
51764;SDS011;37835;53.256;6.456;2023-12-14T13:32:01;21.83;;;13.65;;
51764;SDS011;37835;53.256;6.456;2023-12-14T13:34:27;25.83;;;14.57;;
51764;SDS011;37835;53.256;6.456;2023-12-14T13:36:53;23.67;;;14.23;;
51764;SDS011;37835;53.256;6.456;2023-12-14T13:39:19;23.48;;;14.07;;
51764;SDS011;37835;53.256;6.456;2023-12-14T13:41:45;22.83;;;14.00;;
51764;SDS011;37835;53.256;6.456;2023-12-14T13:44:11;19.48;;;12.88;;
51764;SDS011;37835;53.256;6.456;2023-12-14T13:46:37;26.88;;;14.43;;
51764;SDS011;37835;53.256;6.456;2023-12-14T13:49:02;21.67;;;13.90;;
51764;SDS011;37835;53.256;6.456;2023-12-14T13:51:28;22.20;;;13.32;;
51764;SDS011;37835;53.256;6.456;2023-12-14T13:53:54;19.73;;;13.30;;
51764;SDS011;37835;53.256;6.456;2023-12-14T13:56:20;21.92;;;14.57;;
51764;SDS011;37835;53.256;6.456;2023-12-14T13:58:46;20.95;;;13.82;;
51764;SDS011;37835;53.256;6.456;2023-12-14T14:01:11;23.80;;;13.20;;
51764;SDS011;37835;53.256;6.456;2023-12-14T14:03:37;22.13;;;13.15;;
51764;SDS011;37835;53.256;6.456;2023-12-14T14:06:03;20.52;;;13.50;;
51764;SDS011;37835;53.256;6.456;2023-12-14T14:08:30;22.17;;;14.70;;
51764;SDS011;37835;53.256;6.456;2023-12-14T14:10:57;20.85;;;13.07;;
51764;SDS011;37835;53.256;6.456;2023-12-14T14:13:23;22.27;;;13.05;;
51764;SDS011;37835;53.256;6.456;2023-12-14T14:15:49;18.63;;;12.65;;
51764;SDS011;37835;53.256;6.456;2023-12-14T14:18:15;18.67;;;12.52;;
51764;SDS011;37835;53.256;6.456;2023-12-14T14:20:40;19.42;;;12.98;;
51764;SDS011;37835;53.256;6.456;2023-12-14T14:23:06;23.38;;;12.88;;
51764;SDS011;37835;53.256;6.456;2023-12-14T14:25:31;20.15;;;11.88;;
51764;SDS011;37835;53.256;6.456;2023-12-14T14:27:57;23.30;;;12.88;;